Time;durP1;ratioP1;P1;durP2;ratioP2;P2;SDS_P1;SDS_P2;PMS_P1;PMS_P2;Temp;Humidity;BMP_temperature;BMP_pressure;BME280_temperature;BME280_humidity;BME280_pressure;Samples;Min_cycle;Max_cycle;Signal;HPM_P1;HPM_P2
2023/04/22 00:01:01;;;;;;;15.83;8.67;;;10.40;99.90;;;;;;4163077;28;20034;-64
2023/04/22 00:03:02;;;;;;;14.60;9.47;;;10.40;99.90;;;;;;4147257;28;20441;-70
2023/04/22 00:05:05;;;;;;;15.13;8.93;;;10.40;99.90;;;;;;4147204;28;20042;-66
2023/04/22 00:07:07;;;;;;;13.60;7.83;;;10.40;99.90;;;;;;4150689;28;20425;-65
2023/04/22 00:09:09;;;;;;;13.13;8.03;;;10.40;99.90;;;;;;4158288;28;20025;-67
2023/04/22 00:11:10;;;;;;;13.87;7.83;;;10.30;99.90;;;;;;4161964;28;20033;-69
2023/04/22 00:13:11;;;;;;;17.27;8.70;;;10.30;99.90;;;;;;4162258;28;20064;-71
2023/04/22 00:15:12;;;;;;;15.13;7.83;;;10.30;99.90;;;;;;4145769;28;20155;-69
2023/04/22 00:17:14;;;;;;;16.67;8.40;;;10.30;99.90;;;;;;4145469;28;20046;-65
2023/04/22 00:19:15;;;;;;;12.13;8.00;;;10.20;99.90;;;;;;4146011;28;20034;-70
2023/04/22 00:21:16;;;;;;;10.97;8.33;;;10.20;99.90;;;;;;4145426;28;20076;-69
2023/04/22 00:23:18;;;;;;;12.60;7.27;;;10.20;99.90;;;;;;4148015;28;20030;-72
2023/04/22 00:25:19;;;;;;;13.10;7.40;;;10.20;99.90;;;;;;4145118;28;20030;-72
2023/04/22 00:27:20;;;;;;;14.20;9.30;;;10.20;99.90;;;;;;4146305;28;20563;-70
2023/04/22 00:29:21;;;;;;;23.37;9.37;;;10.20;99.90;;;;;;4145047;28;20112;-66
2023/04/22 00:31:22;;;;;;;22.73;8.93;;;10.20;99.90;;;;;;4162490;28;20048;-64
2023/04/22 00:33:24;;;;;;;16.50;9.20;;;10.20;99.90;;;;;;4161246;28;20493;-68
2023/04/22 00:35:25;;;;;;;18.87;8.83;;;10.30;99.90;;;;;;4161936;28;20425;-69
2023/04/22 00:37:27;;;;;;;18.03;9.30;;;10.20;99.90;;;;;;4161386;28;20072;-70
2023/04/22 00:39:28;;;;;;;15.40;10.00;;;10.20;99.90;;;;;;4162523;28;20025;-68
2023/04/22 00:41:31;;;;;;;15.57;8.77;;;10.20;99.90;;;;;;4160811;28;20419;-73
2023/04/22 00:43:32;;;;;;;13.10;8.57;;;10.10;99.90;;;;;;4161994;28;20547;-64
2023/04/22 00:45:35;;;;;;;17.93;8.63;;;10.10;99.90;;;;;;4160085;28;20037;-64
2023/04/22 00:47:36;;;;;;;14.70;8.20;;;10.10;99.90;;;;;;4161487;28;20501;-63
2023/04/22 00:49:38;;;;;;;13.80;8.50;;;10.00;99.90;;;;;;4160079;28;20083;-71
2023/04/22 00:51:39;;;;;;;17.50;9.17;;;10.00;99.90;;;;;;4160986;28;20083;-67
2023/04/22 00:53:40;;;;;;;13.57;9.73;;;10.00;99.90;;;;;;4162329;28;20095;-70
2023/04/22 00:55:41;;;;;;;15.33;8.97;;;10.00;99.90;;;;;;4160685;28;20107;-69
2023/04/22 00:57:43;;;;;;;15.93;8.87;;;10.00;99.90;;;;;;4149380;28;20042;-69
2023/04/22 00:59:45;;;;;;;14.37;9.97;;;10.00;99.90;;;;;;4127147;28;20097;-65
2023/04/22 01:01:46;;;;;;;14.73;9.17;;;10.00;99.90;;;;;;4145601;28;20077;-67
2023/04/22 01:03:49;;;;;;;17.33;9.20;;;10.00;99.90;;;;;;4149188;28;20482;-68
2023/04/22 01:05:50;;;;;;;17.23;10.10;;;10.00;99.90;;;;;;4160589;28;20022;-68
2023/04/22 01:07:51;;;;;;;14.63;9.00;;;10.00;99.90;;;;;;4148439;28;20026;-69
2023/04/22 01:09:52;;;;;;;12.90;9.10;;;10.00;99.90;;;;;;4145858;28;20037;-64
2023/04/22 01:11:55;;;;;;;17.23;9.47;;;10.00;99.90;;;;;;4144104;28;20478;-69
2023/04/22 01:13:56;;;;;;;16.93;8.93;;;10.00;99.90;;;;;;4145397;28;20030;-66
2023/04/22 01:15:59;;;;;;;18.00;9.20;;;10.10;99.90;;;;;;4144702;28;20096;-66
2023/04/22 01:18:01;;;;;;;14.50;9.17;;;10.10;99.90;;;;;;4145181;28;20096;-67
2023/04/22 01:20:03;;;;;;;24.80;10.10;;;10.10;99.90;;;;;;4144192;28;20080;-68
2023/04/22 01:22:06;;;;;;;13.57;9.40;;;10.00;99.90;;;;;;4150257;28;20504;-65
2023/04/22 01:24:08;;;;;;;18.40;9.20;;;10.00;99.90;;;;;;4161548;28;20107;-67
2023/04/22 01:26:09;;;;;;;15.73;9.20;;;10.00;99.90;;;;;;4160473;28;20049;-67
2023/04/22 01:28:10;;;;;;;12.57;9.20;;;10.00;99.90;;;;;;4161718;28;20064;-69
2023/04/22 01:30:12;;;;;;;16.37;9.77;;;9.90;99.90;;;;;;4160850;28;20521;-70
2023/04/22 01:32:13;;;;;;;14.67;9.33;;;9.90;99.90;;;;;;4160117;28;20030;-67
2023/04/22 01:34:14;;;;;;;15.10;9.23;;;9.90;99.90;;;;;;4157792;28;20041;-65
2023/04/22 01:36:16;;;;;;;13.77;8.37;;;9.90;99.90;;;;;;4161605;28;20762;-72
2023/04/22 01:38:17;;;;;;;14.73;7.80;;;9.90;99.90;;;;;;4153069;28;20099;-71
2023/04/22 01:40:21;;;;;;;15.60;8.67;;;9.90;99.90;;;;;;4154899;28;20033;-67
2023/04/22 01:42:23;;;;;;;17.93;8.50;;;9.80;99.90;;;;;;4160298;28;20091;-68
2023/04/22 01:44:25;;;;;;;18.47;9.70;;;9.80;99.90;;;;;;4161422;28;20033;-70
2023/04/22 01:46:26;;;;;;;22.90;11.20;;;9.80;99.90;;;;;;4160731;28;20022;-68
2023/04/22 01:48:27;;;;;;;15.73;10.13;;;9.70;99.90;;;;;;4161307;28;20088;-68
2023/04/22 01:50:28;;;;;;;19.10;10.47;;;9.60;99.90;;;;;;4160037;28;20080;-65
2023/04/22 01:52:30;;;;;;;18.37;10.13;;;9.50;99.90;;;;;;4144672;28;20076;-69
2023/04/22 01:54:32;;;;;;;22.53;10.27;;;9.50;99.90;;;;;;4153708;28;20029;-65
2023/04/22 01:56:34;;;;;;;19.63;9.93;;;9.40;99.90;;;;;;4155386;28;20080;-74
2023/04/22 01:58:35;;;;;;;20.87;10.87;;;9.40;99.90;;;;;;4154615;28;20425;-65
2023/04/22 02:00:36;;;;;;;21.43;11.43;;;9.30;99.90;;;;;;4160530;28;20547;-69
2023/04/22 02:02:37;;;;;;;15.30;9.90;;;9.30;99.90;;;;;;4161565;28;20059;-68
2023/04/22 02:04:38;;;;;;;21.73;11.43;;;9.20;99.90;;;;;;4159521;28;20045;-65
2023/04/22 02:06:39;;;;;;;18.30;10.33;;;9.10;99.90;;;;;;4153206;28;20038;-66
2023/04/22 02:08:40;;;;;;;20.57;10.73;;;9.00;99.90;;;;;;4146143;28;20061;-71
2023/04/22 02:10:41;;;;;;;22.37;10.97;;;9.00;99.90;;;;;;4151979;28;20038;-69
2023/04/22 02:12:43;;;;;;;19.40;10.70;;;9.00;99.90;;;;;;4144584;28;20112;-72
2023/04/22 02:14:44;;;;;;;22.23;10.13;;;9.00;99.90;;;;;;4155503;28;20037;-72
2023/04/22 02:16:45;;;;;;;21.73;11.03;;;8.90;99.90;;;;;;4156984;28;20105;-67
2023/04/22 02:18:46;;;;;;;23.10;11.30;;;8.90;99.90;;;;;;4144643;28;20418;-67
2023/04/22 02:20:47;;;;;;;20.20;11.40;;;8.70;99.90;;;;;;4158013;28;20045;-72
2023/04/22 02:22:49;;;;;;;17.87;11.17;;;8.60;99.90;;;;;;4143306;28;20096;-71
2023/04/22 02:24:50;;;;;;;17.90;10.10;;;8.50;99.90;;;;;;4160245;28;20092;-66
2023/04/22 02:26:51;;;;;;;18.67;11.43;;;8.40;99.90;;;;;;4160363;28;20440;-69
2023/04/22 02:28:52;;;;;;;18.47;10.77;;;8.40;99.90;;;;;;4143586;28;20108;-69
2023/04/22 02:30:54;;;;;;;17.53;10.63;;;8.40;99.90;;;;;;4160082;28;20373;-70
2023/04/22 02:32:55;;;;;;;20.40;10.97;;;8.30;99.90;;;;;;4158058;28;20505;-70
2023/04/22 02:34:56;;;;;;;21.37;10.63;;;8.30;99.90;;;;;;4146825;28;20025;-66
2023/04/22 02:36:57;;;;;;;16.40;10.13;;;8.30;99.90;;;;;;4147225;28;20041;-68
2023/04/22 02:38:58;;;;;;;14.60;9.27;;;8.20;99.90;;;;;;4146522;28;20069;-70
2023/04/22 02:41:00;;;;;;;17.97;9.70;;;8.30;99.90;;;;;;4147931;28;20038;-71
2023/04/22 02:43:01;;;;;;;19.77;10.53;;;8.30;99.90;;;;;;4146841;28;20469;-65
2023/04/22 02:45:02;;;;;;;13.40;9.37;;;8.20;99.90;;;;;;4158923;28;20802;-70
2023/04/22 02:47:05;;;;;;;17.63;10.23;;;8.10;99.90;;;;;;4129091;28;20065;-72
2023/04/22 02:49:06;;;;;;;14.33;10.03;;;8.00;99.90;;;;;;4147360;28;20034;-73
2023/04/22 02:51:07;;;;;;;21.60;10.43;;;8.00;99.90;;;;;;4146816;28;20060;-65
2023/04/22 02:53:08;;;;;;;25.20;10.70;;;8.00;99.90;;;;;;4147084;28;20088;-69
2023/04/22 02:55:09;;;;;;;23.73;11.30;;;7.90;99.90;;;;;;4153170;28;20091;-69
2023/04/22 02:57:10;;;;;;;17.40;9.67;;;7.90;99.90;;;;;;4154452;28;20025;-67
2023/04/22 02:59:12;;;;;;;22.40;9.23;;;7.90;99.90;;;;;;4147439;28;20150;-69
2023/04/22 03:01:13;;;;;;;16.60;10.03;;;7.90;99.90;;;;;;4146385;28;20030;-63
2023/04/22 03:03:14;;;;;;;17.63;9.87;;;7.90;99.90;;;;;;4147194;28;20532;-67
2023/04/22 03:05:15;;;;;;;20.50;10.30;;;7.80;99.90;;;;;;4147231;28;20088;-71
2023/04/22 03:07:17;;;;;;;22.83;11.03;;;7.80;99.90;;;;;;4163033;28;20116;-69
2023/04/22 03:09:18;;;;;;;26.23;10.67;;;7.80;99.90;;;;;;4163068;28;20033;-66
2023/04/22 03:11:19;;;;;;;22.33;10.70;;;7.70;99.90;;;;;;4161649;28;20482;-69
2023/04/22 03:13:20;;;;;;;24.03;10.57;;;7.70;99.90;;;;;;4157441;28;20041;-68
2023/04/22 03:15:21;;;;;;;20.10;11.60;;;7.70;99.90;;;;;;4163806;28;20025;-72
2023/04/22 03:17:24;;;;;;;23.67;10.83;;;7.70;99.90;;;;;;4162446;28;20022;-70
2023/04/22 03:19:25;;;;;;;20.40;11.60;;;7.70;99.90;;;;;;4163127;28;20025;-68
2023/04/22 03:21:27;;;;;;;23.67;12.63;;;7.60;99.90;;;;;;4162754;28;20473;-71
2023/04/22 03:23:28;;;;;;;22.07;10.80;;;7.50;99.90;;;;;;4161328;28;20014;-70
2023/04/22 03:25:29;;;;;;;18.80;10.67;;;7.40;99.90;;;;;;4146008;28;20080;-67
2023/04/22 03:27:30;;;;;;;23.97;11.33;;;7.40;99.90;;;;;;4153784;28;20045;-68
2023/04/22 03:29:32;;;;;;;22.47;11.27;;;7.30;99.90;;;;;;4163292;28;20094;-66
2023/04/22 03:31:33;;;;;;;20.30;10.47;;;7.20;99.90;;;;;;4161921;28;20055;-68
2023/04/22 03:33:34;;;;;;;22.90;9.67;;;7.20;99.90;;;;;;4163247;28;20068;-67
2023/04/22 03:35:35;;;;;;;26.03;11.00;;;7.20;99.90;;;;;;4161632;28;20490;-68
2023/04/22 03:37:36;;;;;;;22.73;10.47;;;7.20;99.90;;;;;;4163428;28;20052;-71
2023/04/22 03:39:37;;;;;;;17.13;10.77;;;7.20;99.90;;;;;;4162170;28;20494;-69
2023/04/22 03:41:38;;;;;;;18.27;10.70;;;7.20;99.90;;;;;;4161749;28;20037;-71
2023/04/22 03:43:39;;;;;;;21.17;10.80;;;7.20;99.90;;;;;;4161869;28;20079;-69
2023/04/22 03:45:41;;;;;;;22.30;12.00;;;7.20;99.90;;;;;;4155745;28;20096;-64
2023/04/22 03:47:42;;;;;;;27.77;10.97;;;7.20;99.90;;;;;;4145651;28;20088;-69
2023/04/22 03:49:43;;;;;;;24.13;11.70;;;7.30;99.90;;;;;;4128968;28;20046;-72
2023/04/22 03:51:44;;;;;;;19.40;10.03;;;7.40;99.90;;;;;;4145694;28;20038;-70
2023/04/22 03:53:46;;;;;;;15.20;9.97;;;7.40;99.90;;;;;;4143710;28;20100;-72
2023/04/22 03:55:47;;;;;;;20.43;10.37;;;7.60;99.90;;;;;;4161928;28;20037;-69
2023/04/22 03:57:48;;;;;;;18.67;9.83;;;7.70;99.90;;;;;;4162137;28;20776;-72
2023/04/22 03:59:49;;;;;;;13.73;9.40;;;8.00;99.90;;;;;;4162553;28;20026;-63
2023/04/22 04:01:52;;;;;;;15.90;9.17;;;8.20;99.90;;;;;;4146927;28;20096;-72
2023/04/22 04:03:53;;;;;;;18.57;11.10;;;8.50;99.90;;;;;;4145512;28;20053;-69
2023/04/22 04:05:54;;;;;;;21.53;10.53;;;8.80;99.90;;;;;;4148206;28;20064;-71
2023/04/22 04:07:55;;;;;;;15.93;9.73;;;9.20;99.90;;;;;;4146490;28;20034;-71
2023/04/22 04:09:56;;;;;;;19.97;9.93;;;9.50;99.90;;;;;;4145764;28;20030;-70
2023/04/22 04:11:58;;;;;;;16.50;9.87;;;9.70;99.90;;;;;;4147400;28;20026;-72
2023/04/22 04:13:59;;;;;;;14.47;9.20;;;9.90;99.90;;;;;;4148873;28;20426;-69
2023/04/22 04:16:00;;;;;;;16.20;8.93;;;10.20;99.90;;;;;;4145965;28;20045;-72
2023/04/22 04:18:04;;;;;;;22.13;10.03;;;10.40;99.90;;;;;;4151876;28;20053;-72
2023/04/22 04:20:06;;;;;;;17.93;9.60;;;10.50;99.90;;;;;;4162472;28;20025;-71
2023/04/22 04:22:08;;;;;;;14.10;8.93;;;10.70;99.90;;;;;;4150692;28;20855;-62
2023/04/22 04:24:09;;;;;;;14.27;8.30;;;11.00;99.90;;;;;;4145829;28;20037;-71
2023/04/22 04:26:11;;;;;;;15.00;7.87;;;11.20;99.90;;;;;;4145113;28;20115;-71
2023/04/22 04:28:12;;;;;;;14.17;8.37;;;11.40;99.90;;;;;;4127970;28;20077;-72
2023/04/22 04:30:15;;;;;;;17.23;8.10;;;11.30;99.90;;;;;;4145647;28;20057;-71
2023/04/22 04:32:17;;;;;;;17.57;9.23;;;11.30;99.90;;;;;;4144743;28;20034;-73
2023/04/22 04:34:18;;;;;;;13.33;8.70;;;11.40;99.90;;;;;;4145714;28;20037;-68
2023/04/22 04:36:19;;;;;;;18.20;8.63;;;11.40;99.90;;;;;;4144521;28;20037;-72
2023/04/22 04:38:20;;;;;;;17.97;9.30;;;11.40;99.90;;;;;;4156280;28;20037;-72
2023/04/22 04:40:22;;;;;;;14.53;8.53;;;11.40;99.90;;;;;;4152354;28;20038;-70
2023/04/22 04:42:24;;;;;;;21.13;9.23;;;11.80;99.90;;;;;;4146098;28;20026;-69
2023/04/22 04:44:26;;;;;;;15.63;9.07;;;12.00;99.90;;;;;;4147205;28;20108;-70
2023/04/22 04:46:28;;;;;;;14.57;9.07;;;12.50;99.90;;;;;;4153888;28;20092;-71
2023/04/22 04:48:29;;;;;;;20.07;8.63;;;12.90;99.90;;;;;;4160953;28;20060;-73
2023/04/22 04:50:30;;;;;;;18.97;8.60;;;13.20;99.90;;;;;;4156566;28;20049;-67
2023/04/22 04:52:31;;;;;;;17.03;9.53;;;13.50;99.90;;;;;;4146148;28;20045;-64
2023/04/22 04:54:33;;;;;;;14.00;8.17;;;14.10;99.90;;;;;;4147054;28;20375;-62
2023/04/22 04:56:34;;;;;;;22.97;13.63;;;14.60;99.90;;;;;;4158865;28;20030;-70
2023/04/22 04:58:35;;;;;;;17.67;10.00;;;14.70;99.90;;;;;;4149850;28;20387;-71
2023/04/22 05:00:36;;;;;;;22.30;10.13;;;14.70;99.90;;;;;;4161554;28;20030;-71
2023/04/22 05:02:37;;;;;;;20.83;10.20;;;14.40;99.90;;;;;;4157665;28;20034;-65
2023/04/22 05:04:38;;;;;;;19.67;10.20;;;14.60;99.90;;;;;;4145183;28;20601;-68
2023/04/22 05:06:39;;;;;;;17.77;10.37;;;15.00;99.90;;;;;;4144403;28;20447;-66
2023/04/22 05:08:41;;;;;;;23.17;10.48;;;;;;;;;;4145865;28;20088;-68
2023/04/22 05:10:43;;;;;;;25.90;9.95;;;15.30;99.40;;;;;;4144339;28;20429;-70
2023/04/22 05:12:46;;;;;;;21.73;9.13;;;16.20;98.10;;;;;;4144198;28;20088;-68
2023/04/22 05:14:47;;;;;;;25.17;9.85;;;16.60;97.50;;;;;;4147024;28;20151;-70
2023/04/22 05:16:48;;;;;;;22.70;10.35;;;17.20;96.60;;;;;;4161552;28;20118;-72
2023/04/22 05:18:50;;;;;;;21.02;9.90;;;17.30;95.60;;;;;;4160017;28;20045;-72
2023/04/22 05:20:51;;;;;;;24.25;10.90;;;17.40;95.10;;;;;;4160866;28;20095;-66
2023/04/22 05:22:52;;;;;;;18.27;8.88;;;17.50;94.70;;;;;;4154586;28;20394;-73
2023/04/22 05:24:53;;;;;;;24.98;10.05;;;17.50;94.20;;;;;;4146662;28;20038;-73
2023/04/22 05:26:56;;;;;;;26.20;10.80;;;17.60;94.00;;;;;;4144267;28;20398;-65
2023/04/22 05:28:58;;;;;;;20.98;10.40;;;17.70;93.40;;;;;;4144396;28;20057;-72
2023/04/22 05:30:59;;;;;;;20.67;9.90;;;18.00;93.20;;;;;;4151431;28;20030;-65
2023/04/22 05:33:00;;;;;;;15.23;9.50;;;18.10;92.70;;;;;;4149272;28;20037;-75
2023/04/22 05:35:02;;;;;;;16.85;9.45;;;17.80;92.60;;;;;;4144807;28;20103;-72
2023/04/22 05:37:04;;;;;;;23.33;10.70;;;17.60;92.40;;;;;;4142657;28;20469;-70
2023/04/22 05:39:05;;;;;;;24.98;10.27;;;17.20;92.40;;;;;;4157193;28;20437;-74
2023/04/22 05:41:06;;;;;;;28.25;9.93;;;17.20;92.60;;;;;;4159548;28;20095;-72
2023/04/22 05:43:08;;;;;;;23.20;10.73;;;17.20;92.30;;;;;;4160815;28;20470;-71
2023/04/22 05:45:09;;;;;;;25.20;10.60;;;17.60;92.30;;;;;;4159749;28;20048;-68
2023/04/22 05:47:10;;;;;;;21.15;9.38;;;17.60;91.80;;;;;;4159464;28;20516;-70
2023/04/22 05:49:12;;;;;;;22.70;9.48;;;17.70;91.60;;;;;;4158446;28;20065;-71
2023/04/22 05:51:13;;;;;;;19.98;9.32;;;17.80;91.10;;;;;;4145320;28;20029;-73
2023/04/22 05:53:14;;;;;;;15.43;9.55;;;18.10;91.10;;;;;;4143758;28;20457;-72
2023/04/22 05:55:15;;;;;;;18.25;9.30;;;18.60;90.40;;;;;;4144831;28;20041;-71
2023/04/22 05:57:17;;;;;;;20.58;9.18;;;19.10;89.60;;;;;;4144660;28;20030;-73
2023/04/22 05:59:18;;;;;;;17.50;9.13;;;19.40;88.10;;;;;;4146341;28;20080;-73
2023/04/22 06:01:19;;;;;;;15.85;9.30;;;19.50;87.00;;;;;;4156019;28;20075;-74
2023/04/22 06:03:20;;;;;;;12.90;8.50;;;19.30;86.90;;;;;;4141898;28;20151;-73
2023/04/22 06:05:21;;;;;;;20.38;8.77;;;19.30;86.70;;;;;;4156533;28;20050;-70
2023/04/22 06:07:22;;;;;;;17.25;9.43;;;19.40;85.70;;;;;;4147400;28;20544;-71
2023/04/22 06:09:23;;;;;;;28.33;10.70;;;19.50;85.10;;;;;;4148529;28;20042;-67
2023/04/22 06:11:24;;;;;;;16.60;9.68;;;19.00;84.60;;;;;;4147537;28;20038;-73
2023/04/22 06:13:26;;;;;;;20.15;9.68;;;18.40;85.20;;;;;;4150793;28;20068;-71
2023/04/22 06:15:28;;;;;;;18.60;9.18;;;18.00;86.20;;;;;;4146602;28;20033;-64
2023/04/22 06:17:29;;;;;;;18.95;9.63;;;17.60;86.60;;;;;;4147447;28;20038;-71
2023/04/22 06:19:30;;;;;;;12.95;8.57;;;17.40;87.30;;;;;;4146552;28;20509;-61
2023/04/22 06:21:32;;;;;;;21.65;10.38;;;17.50;87.30;;;;;;4131137;28;20031;-71
2023/04/22 06:23:33;;;;;;;18.60;9.27;;;17.40;87.70;;;;;;4145866;28;20038;-72
2023/04/22 06:25:34;;;;;;;15.70;8.98;;;17.00;88.50;;;;;;4158411;28;20042;-70
2023/04/22 06:27:36;;;;;;;15.90;8.95;;;16.80;89.10;;;;;;4162695;28;20033;-71
2023/04/22 06:29:38;;;;;;;15.63;9.25;;;16.80;89.30;;;;;;4144926;28;20124;-73
2023/04/22 06:31:39;;;;;;;23.20;9.10;;;16.40;89.90;;;;;;4144611;28;20030;-73
2023/04/22 06:33:40;;;;;;;13.40;8.38;;;16.00;90.50;;;;;;4162414;28;20061;-72
2023/04/22 06:35:41;;;;;;;16.02;8.50;;;16.00;90.50;;;;;;4162981;28;20075;-69
2023/04/22 06:37:43;;;;;;;10.93;7.35;;;16.00;90.20;;;;;;4155860;28;20038;-68
2023/04/22 06:39:44;;;;;;;10.32;7.60;;;16.00;90.00;;;;;;4149596;28;20092;-75
2023/04/22 06:41:45;;;;;;;10.95;7.90;;;15.90;89.40;;;;;;4152542;28;20079;-77
2023/04/22 06:43:48;;;;;;;10.25;6.80;;;15.80;90.10;;;;;;4163604;28;20045;-72
2023/04/22 06:45:50;;;;;;;11.32;7.15;;;15.70;89.00;;;;;;4161784;28;20425;-68
2023/04/22 06:47:54;;;;;;;11.20;6.68;;;15.60;88.90;;;;;;4159199;28;20046;-68
2023/04/22 06:49:56;;;;;;;10.73;7.07;;;15.40;89.00;;;;;;4160099;28;20037;-67
2023/04/22 06:51:57;;;;;;;11.27;7.13;;;15.40;89.30;;;;;;4163595;28;20477;-68
2023/04/22 06:53:58;;;;;;;13.43;7.78;;;15.50;89.70;;;;;;4159688;28;20111;-68
2023/04/22 06:55:59;;;;;;;9.80;6.20;;;15.60;88.80;;;;;;4163518;28;20390;-67
2023/04/22 06:58:00;;;;;;;10.95;7.40;;;15.60;88.00;;;;;;4162298;28;20115;-71
2023/04/22 07:00:04;;;;;;;10.20;7.05;;;15.80;87.40;;;;;;4162758;28;20037;-68
2023/04/22 07:02:05;;;;;;;9.13;6.47;;;15.80;87.20;;;;;;4161354;28;20041;-66
2023/04/22 07:04:06;;;;;;;14.32;6.93;;;16.00;86.40;;;;;;4161782;28;20442;-69
2023/04/22 07:06:08;;;;;;;8.77;6.68;;;16.40;85.80;;;;;;4152602;28;20071;-68
2023/04/22 07:08:10;;;;;;;13.80;7.43;;;16.60;84.90;;;;;;4145453;28;20107;-71
2023/04/22 07:10:13;;;;;;;12.60;7.63;;;16.60;84.70;;;;;;4147018;28;20430;-73
2023/04/22 07:12:14;;;;;;;12.48;8.40;;;16.80;85.10;;;;;;4146019;28;20084;-70
2023/04/22 07:14:15;;;;;;;11.98;8.55;;;16.80;85.40;;;;;;4158693;28;20091;-68
2023/04/22 07:16:17;;;;;;;14.02;9.70;;;16.50;85.90;;;;;;4162024;28;20083;-72
2023/04/22 07:18:18;;;;;;;12.73;9.10;;;16.50;86.40;;;;;;4161448;28;20045;-73
2023/04/22 07:20:19;;;;;;;15.77;9.38;;;16.50;86.40;;;;;;4159647;28;20037;-70
2023/04/22 07:22:20;;;;;;;12.75;8.27;;;16.20;87.00;;;;;;4156356;28;20037;-74
2023/04/22 07:24:22;;;;;;;13.05;8.68;;;16.00;87.90;;;;;;4145695;28;20475;-72
2023/04/22 07:26:23;;;;;;;14.77;8.98;;;15.80;88.40;;;;;;4145963;28;20397;-67
2023/04/22 07:28:24;;;;;;;13.60;9.00;;;16.00;88.80;;;;;;4149859;28;20111;-63
2023/04/22 07:30:26;;;;;;;15.90;8.27;;;16.20;88.80;;;;;;4154831;28;20424;-64
2023/04/22 07:32:27;;;;;;;13.88;8.38;;;16.10;89.20;;;;;;4157436;28;20030;-61
2023/04/22 07:34:28;;;;;;;16.60;8.35;;;16.30;89.30;;;;;;4154159;28;20038;-63
2023/04/22 07:36:31;;;;;;;13.30;7.55;;;16.30;89.30;;;;;;4154818;28;20436;-64
2023/04/22 07:38:32;;;;;;;14.57;8.25;;;16.30;89.60;;;;;;4162378;28;20026;-63
2023/04/22 07:40:33;;;;;;;14.13;8.52;;;16.20;89.60;;;;;;4163195;28;20405;-63
2023/04/22 07:42:37;;;;;;;12.10;8.35;;;16.30;90.10;;;;;;4161743;28;20037;-68
2023/04/22 07:44:38;;;;;;;12.27;8.10;;;16.30;90.20;;;;;;4144658;28;20175;-75
2023/04/22 07:46:39;;;;;;;12.80;8.55;;;16.10;90.40;;;;;;4149899;28;20045;-64
2023/04/22 07:48:40;;;;;;;17.00;8.40;;;16.00;90.60;;;;;;4145810;28;20034;-71
2023/04/22 07:50:42;;;;;;;13.88;7.88;;;16.20;90.70;;;;;;4144533;28;20087;-75
2023/04/22 07:52:43;;;;;;;15.48;8.35;;;16.50;90.70;;;;;;4161714;28;20037;-62
2023/04/22 07:54:44;;;;;;;13.93;7.68;;;16.80;90.40;;;;;;4161209;28;20033;-63
2023/04/22 07:56:46;;;;;;;10.23;7.93;;;16.80;90.10;;;;;;4151745;28;20045;-75
2023/04/22 07:58:47;;;;;;;14.57;8.35;;;16.70;90.00;;;;;;4145082;28;20081;-75
2023/04/22 08:00:48;;;;;;;17.23;8.27;;;16.50;90.20;;;;;;4145657;28;20482;-63
2023/04/22 08:02:49;;;;;;;13.80;8.02;;;16.60;90.60;;;;;;4144660;28;20474;-70
2023/04/22 08:04:50;;;;;;;12.95;8.10;;;16.80;90.60;;;;;;4145890;28;20449;-60
2023/04/22 08:06:52;;;;;;;12.23;7.65;;;16.70;90.40;;;;;;4160273;28;20041;-61
2023/04/22 08:08:53;;;;;;;11.68;7.47;;;16.60;90.30;;;;;;4161034;28;20045;-63
2023/04/22 08:10:54;;;;;;;8.77;6.70;;;16.60;90.30;;;;;;4162513;28;20140;-71
2023/04/22 08:12:55;;;;;;;13.50;7.03;;;16.50;89.60;;;;;;4143687;28;20084;-73
2023/04/22 08:14:57;;;;;;;9.10;6.38;;;16.50;89.70;;;;;;4162301;28;20380;-61
2023/04/22 08:16:58;;;;;;;10.90;6.32;;;16.70;89.30;;;;;;4142944;28;20038;-63
2023/04/22 08:18:59;;;;;;;10.48;6.68;;;16.80;87.50;;;;;;4161477;28;20041;-70
2023/04/22 08:21:01;;;;;;;12.68;7.00;;;16.80;88.10;;;;;;4161119;28;20029;-70
2023/04/22 08:23:02;;;;;;;11.20;6.28;;;16.90;88.30;;;;;;4160218;28;20445;-66
2023/04/22 08:25:03;;;;;;;8.35;5.18;;;17.10;87.40;;;;;;4157821;28;20095;-65
2023/04/22 08:27:05;;;;;;;12.27;4.88;;;17.10;86.20;;;;;;4149690;28;20042;-72
2023/04/22 08:29:06;;;;;;;8.38;5.03;;;17.20;85.80;;;;;;4144405;28;20116;-62
2023/04/22 08:31:11;;;;;;;6.53;4.18;;;17.30;85.20;;;;;;4144862;28;20425;-72
2023/04/22 08:33:12;;;;;;;6.28;4.72;;;17.30;83.50;;;;;;4155835;28;20087;-61
2023/04/22 08:35:13;;;;;;;10.27;4.53;;;17.30;83.10;;;;;;4161580;28;20547;-77
2023/04/22 08:37:15;;;;;;;7.93;4.90;;;17.30;83.80;;;;;;4160981;28;20068;-62
2023/04/22 08:39:17;;;;;;;12.15;5.25;;;17.40;83.50;;;;;;4161441;28;20108;-77
2023/04/22 08:41:18;;;;;;;7.28;4.50;;;17.30;82.80;;;;;;4160369;28;20091;-74
2023/04/22 08:43:19;;;;;;;4.90;4.10;;;17.20;82.50;;;;;;4160880;28;20484;-77
2023/04/22 08:45:21;;;;;;;7.60;3.95;;;17.20;82.60;;;;;;4161128;28;20099;-62
2023/04/22 08:47:24;;;;;;;8.38;4.55;;;17.40;81.90;;;;;;4160794;28;20107;-76
2023/04/22 08:49:25;;;;;;;11.45;4.30;;;17.50;80.50;;;;;;4161283;28;20041;-78
2023/04/22 08:51:27;;;;;;;8.30;3.67;;;17.60;81.10;;;;;;4160423;28;20075;-73
2023/04/22 08:53:28;;;;;;;5.63;3.88;;;17.70;79.80;;;;;;4161098;28;20037;-60
2023/04/22 08:55:30;;;;;;;5.13;3.58;;;17.80;78.40;;;;;;4159564;28;20099;-73
2023/04/22 08:57:32;;;;;;;7.13;3.97;;;17.80;77.80;;;;;;4161605;28;20110;-61
2023/04/22 08:59:35;;;;;;;5.88;3.40;;;17.70;75.90;;;;;;4160681;28;20025;-78
2023/04/22 09:01:38;;;;;;;5.15;3.35;;;17.70;75.90;;;;;;4161370;28;20540;-62
2023/04/22 09:03:41;;;;;;;4.72;3.47;;;17.80;75.60;;;;;;4160184;28;20501;-61
2023/04/22 09:05:42;;;;;;;6.80;3.50;;;17.80;73.80;;;;;;4161686;28;20470;-78
2023/04/22 09:07:44;;;;;;;6.07;3.35;;;17.90;73.20;;;;;;4160587;28;20390;-78
2023/04/22 09:09:45;;;;;;;3.30;3.00;;;17.90;72.60;;;;;;4161753;28;20034;-77
2023/04/22 09:11:46;;;;;;;3.55;2.60;;;17.90;72.00;;;;;;4160760;28;20033;-63
2023/04/22 09:13:47;;;;;;;4.85;3.50;;;17.80;71.00;;;;;;4160850;28;20025;-61
2023/04/22 09:15:48;;;;;;;5.68;3.08;;;17.50;70.50;;;;;;4160996;28;20083;-62
2023/04/22 09:17:53;;;;;;;5.13;3.50;;;17.50;71.20;;;;;;4160477;28;20550;-61
2023/04/22 09:19:59;;;;;;;5.63;3.00;;;17.40;71.30;;;;;;4161251;28;20033;-60
2023/04/22 09:22:00;;;;;;;5.90;2.88;;;17.40;70.70;;;;;;4160367;28;20029;-62
2023/04/22 09:24:02;;;;;;;6.63;2.75;;;17.30;71.50;;;;;;4143196;28;20042;-61
2023/04/22 09:26:03;;;;;;;5.63;3.03;;;17.40;70.50;;;;;;4159703;28;20440;-63
2023/04/22 09:28:04;;;;;;;4.82;3.30;;;17.30;70.00;;;;;;4160639;28;20042;-62
2023/04/22 09:30:08;;;;;;;5.18;3.05;;;17.20;69.60;;;;;;4160270;28;20137;-61
2023/04/22 09:32:10;;;;;;;4.38;3.00;;;17.20;70.00;;;;;;4161160;28;20103;-62
2023/04/22 09:34:12;;;;;;;5.97;3.47;;;17.30;70.20;;;;;;4160046;28;20038;-63
2023/04/22 09:36:13;;;;;;;5.68;3.63;;;17.30;70.00;;;;;;4160977;28;20045;-62
2023/04/22 09:38:15;;;;;;;4.20;3.10;;;17.50;70.30;;;;;;4159612;28;20088;-61
2023/04/22 09:40:18;;;;;;;7.85;4.63;;;17.50;69.80;;;;;;4161834;28;20107;-63
2023/04/22 09:42:20;;;;;;;4.72;3.35;;;17.40;69.70;;;;;;4163040;28;20071;-62
2023/04/22 09:44:21;;;;;;;6.18;3.42;;;17.50;69.70;;;;;;4163813;28;20091;-62
2023/04/22 09:46:24;;;;;;;7.03;3.20;;;17.60;69.30;;;;;;4163125;28;20087;-61
2023/04/22 09:48:25;;;;;;;5.47;3.25;;;17.50;68.70;;;;;;4163934;28;20072;-62
2023/04/22 09:50:27;;;;;;;4.38;3.30;;;17.30;68.20;;;;;;4164153;28;20029;-61
2023/04/22 09:52:31;;;;;;;6.90;3.70;;;17.30;68.50;;;;;;4163802;28;20033;-62
2023/04/22 09:54:32;;;;;;;5.15;3.10;;;17.50;68.50;;;;;;4164519;28;20049;-62
2023/04/22 09:56:41;;;;;;;4.38;3.30;;;17.60;68.10;;;;;;4163139;28;20082;-62
2023/04/22 09:58:42;;;;;;;4.25;3.00;;;17.60;67.20;;;;;;4164303;28;20029;-61
2023/04/22 10:00:55;;;;;;;7.55;3.03;;;17.60;67.80;;;;;;4163427;28;20039;-67
2023/04/22 10:02:56;;;;;;;3.17;2.88;;;17.70;66.50;;;;;;4164672;28;20026;-70
2023/04/22 10:04:59;;;;;;;4.78;2.58;;;17.70;67.30;;;;;;4163208;28;20432;-63
2023/04/22 10:07:01;;;;;;;5.00;2.80;;;18.00;67.40;;;;;;4164034;28;20041;-78
2023/04/22 10:09:03;;;;;;;5.25;3.10;;;18.20;67.30;;;;;;4163255;28;20033;-76
2023/04/22 10:11:04;;;;;;;4.97;2.67;;;18.30;66.70;;;;;;4164182;28;20041;-62
2023/04/22 10:13:06;;;;;;;5.32;3.38;;;18.20;65.50;;;;;;4163210;28;20025;-61
2023/04/22 10:15:08;;;;;;;4.35;3.08;;;18.00;64.90;;;;;;4164315;28;20091;-62
2023/04/22 10:17:12;;;;;;;6.32;2.53;;;17.80;64.30;;;;;;4145022;28;20033;-61
2023/04/22 10:19:16;;;;;;;4.47;3.08;;;17.60;65.20;;;;;;4164169;28;20473;-72
2023/04/22 10:21:19;;;;;;;10.10;3.03;;;17.50;65.30;;;;;;4162594;28;20037;-63
2023/04/22 10:23:23;;;;;;;5.13;3.17;;;17.50;65.20;;;;;;4163840;28;20079;-75
2023/04/22 10:25:25;;;;;;;4.32;3.25;;;17.40;65.30;;;;;;4162929;28;20025;-61